| time (UTC) | temp F | wind direction | speed MPH | gust MPH | rain 1hr in | rain 24hr in | rain mn in | humidity % | barometer mb |
| 20260504220541 | 78 | 13 | 13.0 | 19.0 | 0.00 | 0.00 | 0.00 | 28 | 1001.4 |
| 20260504220042 | 78 | 32 | 13.0 | 19.0 | 0.00 | 0.00 | 0.00 | 28 | 1001.4 |
| 20260504215540 | 78 | 22 | 13.0 | 17.0 | 0.00 | 0.00 | 0.00 | 28 | 1001.4 |
| 20260504215040 | 79 | 346 | 11.0 | 18.0 | 0.00 | 0.00 | 0.00 | 29 | 1001.4 |
| 20260504214546 | 78 | 20 | 12.0 | 19.0 | 0.00 | 0.00 | 0.00 | 30 | 1001.3 |
| 20260504214039 | 78 | 32 | 12.0 | 19.0 | 0.00 | 0.00 | 0.00 | 29 | 1001.3 |
| 20260504213540 | 79 | 5 | 11.0 | 19.0 | 0.00 | 0.00 | 0.00 | 30 | 1001.3 |
| 20260504213039 | 79 | 15 | 12.0 | 18.0 | 0.00 | 0.00 | 0.00 | 30 | 1001.2 |
| 20260504212538 | 80 | 13 | 8.0 | 21.0 | 0.00 | 0.00 | 0.00 | 30 | 1001.2 |
| 20260504212041 | 79 | 27 | 14.0 | 21.0 | 0.00 | 0.00 | 0.00 | 31 | 1001.2 |
| 20260504211538 | 79 | 10 | 13.0 | 18.0 | 0.00 | 0.00 | 0.00 | 31 | 1001.2 |
| 20260504211041 | 79 | 349 | 5.0 | 18.0 | 0.00 | 0.00 | 0.00 | 32 | 1001.2 |
| 20260504210539 | 79 | 343 | 10.0 | 18.0 | 0.00 | 0.00 | 0.00 | 31 | 1001.2 |
| 20260504210053 | 79 | 5 | 10.0 | 16.0 | 0.00 | 0.00 | 0.00 | 31 | 1001.2 |
| 20260504205538 | 79 | 360 | 9.0 | 16.0 | 0.00 | 0.00 | 0.00 | 31 | 1001.2 |
| 20260504205038 | 80 | 336 | 10.0 | 20.0 | 0.00 | 0.00 | 0.00 | 31 | 1001.2 |
| 20260504204552 | 80 | 5 | 13.0 | 20.0 | 0.00 | 0.00 | 0.00 | 31 | 1001.0 |
| 20260504204037 | 80 | 15 | 10.0 | 16.0 | 0.00 | 0.00 | 0.00 | 32 | 1001.0 |
| 20260504203537 | 80 | 335 | 10.0 | 18.0 | 0.00 | 0.00 | 0.00 | 32 | 1001.0 |
| 20260504203038 | 80 | 360 | 11.0 | 20.0 | 0.00 | 0.00 | 0.00 | 32 | 1000.9 |
| 20260504202535 | 81 | 317 | 13.0 | 20.0 | 0.00 | 0.00 | 0.00 | 31 | 1000.9 |
| 20260504202036 | 80 | 346 | 8.0 | 17.0 | 0.00 | 0.00 | 0.00 | 31 | 1000.9 |
| 20260504201535 | 81 | 309 | 10.0 | 18.0 | 0.00 | 0.00 | 0.00 | 31 | 1000.8 |
| 20260504201036 | 80 | 355 | 11.0 | 19.0 | 0.00 | 0.00 | 0.00 | 32 | 1000.8 |
| 20260504200536 | 80 | 355 | 14.0 | 19.0 | 0.00 | 0.00 | 0.00 | 30 | 1000.8 |
| 20260504200036 | 81 | 333 | 9.0 | 17.0 | 0.00 | 0.00 | 0.00 | 30 | 1000.7 |
| 20260504195535 | 81 | 348 | 11.0 | 18.0 | 0.00 | 0.00 | 0.00 | 30 | 1000.7 |
| 20260504195035 | 81 | 346 | 10.0 | 18.0 | 0.00 | 0.00 | 0.00 | 30 | 1000.7 |
| 20260504194535 | 81 | 360 | 9.0 | 16.0 | 0.00 | 0.00 | 0.00 | 28 | 1000.7 |
| 20260504194036 | 82 | 348 | 11.0 | 16.0 | 0.00 | 0.00 | 0.00 | 27 | 1000.7 |
| 20260504193538 | 81 | 336 | 8.0 | 17.0 | 0.00 | 0.00 | 0.00 | 28 | 1000.7 |
| 20260504193035 | 82 | 314 | 10.0 | 17.0 | 0.00 | 0.00 | 0.00 | 28 | 1000.6 |
| 20260504192534 | 82 | 5 | 9.0 | 16.0 | 0.00 | 0.00 | 0.00 | 26 | 1000.6 |
| 20260504192034 | 82 | 310 | 11.0 | 17.0 | 0.00 | 0.00 | 0.00 | 28 | 1000.6 |
| 20260504191534 | 82 | 355 | 11.0 | 18.0 | 0.00 | 0.00 | 0.00 | 26 | 1000.5 |
| 20260504191034 | 82 | 312 | 10.0 | 15.0 | 0.00 | 0.00 | 0.00 | 28 | 1000.5 |
| 20260504190535 | 82 | 340 | 7.0 | 19.0 | 0.00 | 0.00 | 0.00 | 26 | 1000.5 |
| 20260504190034 | 82 | 311 | 12.0 | 19.0 | 0.00 | 0.00 | 0.00 | 26 | 1000.4 |
| 20260504185533 | 82 | 300 | 8.0 | 14.0 | 0.00 | 0.00 | 0.00 | 27 | 1000.4 |
| 20260504185037 | 82 | 308 | 9.0 | 14.0 | 0.00 | 0.00 | 0.00 | 28 | 1000.4 |
| 20260504184532 | 82 | 296 | 5.0 | 16.0 | 0.00 | 0.00 | 0.00 | 27 | 1000.5 |
| 20260504184031 | 82 | 348 | 10.0 | 16.0 | 0.00 | 0.00 | 0.00 | 28 | 1000.5 |
| 20260504183530 | 82 | 355 | 6.0 | 16.0 | 0.00 | 0.00 | 0.00 | 27 | 1000.5 |
| 20260504183029 | 81 | 341 | 10.0 | 16.0 | 0.00 | 0.00 | 0.00 | 28 | 1000.7 |
| 20260504182529 | 81 | 315 | 6.0 | 15.0 | 0.00 | 0.00 | 0.00 | 27 | 1000.7 |
| 20260504182028 | 82 | 348 | 8.0 | 15.0 | 0.00 | 0.00 | 0.00 | 28 | 1000.7 |
| 20260504181528 | 81 | 315 | 10.0 | 17.0 | 0.00 | 0.00 | 0.00 | 25 | 1000.7 |
| 20260504181028 | 81 | 290 | 11.0 | 19.0 | 0.00 | 0.00 | 0.00 | 26 | 1000.7 |
| 20260504180526 | 81 | 338 | 10.0 | 19.0 | 0.00 | 0.00 | 0.00 | 27 | 1000.7 |
| 20260504180025 | 81 | 300 | 12.0 | 17.0 | 0.00 | 0.00 | 0.00 | 27 | 1000.9 |
| 20260504175524 | 81 | 355 | 8.0 | 14.0 | 0.00 | 0.00 | 0.00 | 28 | 1000.9 |
| 20260504175023 | 80 | 5 | 7.0 | 14.0 | 0.00 | 0.00 | 0.00 | 31 | 1000.9 |
| 20260504174523 | 80 | 338 | 8.0 | 15.0 | 0.00 | 0.00 | 0.00 | 29 | 1001.0 |
| 20260504174022 | 80 | 345 | 9.0 | 15.0 | 0.00 | 0.00 | 0.00 | 28 | 1001.0 |
| 20260504173521 | 80 | 259 | 7.0 | 13.0 | 0.00 | 0.00 | 0.00 | 29 | 1001.0 |
| 20260504173020 | 80 | 344 | 8.0 | 13.0 | 0.00 | 0.00 | 0.00 | 29 | 1001.1 |
| 20260504172519 | 79 | 5 | 7.0 | 15.0 | 0.00 | 0.00 | 0.00 | 31 | 1001.1 |
| 20260504172018 | 79 | 316 | 7.0 | 15.0 | 0.00 | 0.00 | 0.00 | 31 | 1001.1 |
| 20260504171517 | 79 | 355 | 4.0 | 13.0 | 0.00 | 0.00 | 0.00 | 31 | 1001.2 |
| 20260504171020 | 78 | 345 | 7.0 | 13.0 | 0.00 | 0.00 | 0.00 | 32 | 1001.2 |
| 20260504170517 | 78 | 333 | 6.0 | 13.0 | 0.00 | 0.00 | 0.00 | 33 | 1001.2 |
| 20260504160109 | 74 | 273 | 5.0 | 9.0 | 0.00 | 0.00 | 0.00 | 39 | 1001.4 |
| 20260504151044 | 69 | 315 | 5.0 | 9.0 | 0.00 | 0.00 | 0.00 | 44 | 1001.4 |
| 20260504150544 | 69 | 315 | 5.0 | 8.0 | 0.00 | 0.00 | 0.00 | 45 | 1001.4 |
| 20260504141026 | 64 | 289 | 5.0 | 9.0 | 0.00 | 0.00 | 0.00 | 54 | 1001.9 |
| 20260504140525 | 63 | 308 | 3.0 | 9.0 | 0.00 | 0.00 | 0.00 | 55 | 1001.9 |
| 20260504130508 | 55 | 123 | 1.0 | 3.0 | 0.00 | 0.00 | 0.00 | 74 | 1001.4 |
| 20260504110548 | 46 | 173 | 0.0 | 0.0 | 0.00 | 0.00 | 0.00 | 81 | 1001.3 |
| 20260504100541 | 46 | 173 | 0.0 | 0.0 | 0.00 | 0.00 | 0.00 | 78 | 1001.6 |
| 20260504081534 | 53 | 173 | 0.0 | 3.0 | 0.00 | 0.00 | 0.00 | 64 | 1003.0 |
| 20260504081031 | 53 | 173 | 0.0 | 3.0 | 0.00 | 0.00 | 0.00 | 63 | 1003.0 |
| 20260504080530 | 53 | 173 | 0.0 | 6.0 | 0.00 | 0.00 | 0.00 | 64 | 1003.0 |
| 20260504050506 | 54 | 203 | 1.0 | 4.0 | 0.00 | 0.00 | 0.00 | 64 | 1006.0 |
| 20260504050004 | 53 | 203 | 2.0 | 4.0 | 0.00 | 0.00 | 0.00 | 66 | 1006.1 |
| 20260504045503 | 52 | 202 | 1.0 | 3.0 | 0.00 | 0.00 | 0.00 | 69 | 1006.1 |
| 20260504045003 | 52 | 203 | 0.0 | 0.0 | 0.00 | 0.00 | 0.00 | 69 | 1006.1 |
| 20260504044509 | 52 | 203 | 0.0 | 0.0 | 0.00 | 0.00 | 0.00 | 70 | 1006.2 |
| 20260504044005 | 53 | 203 | 0.0 | 0.0 | 0.00 | 0.00 | 0.00 | 70 | 1006.2 |
| 20260504043502 | 53 | 203 | 0.0 | 0.0 | 0.00 | 0.00 | 0.00 | 69 | 1006.2 |
| 20260504043004 | 53 | 203 | 0.0 | 0.0 | 0.00 | 0.00 | 0.00 | 68 | 1006.3 |
| 20260504042502 | 53 | 203 | 0.0 | 0.0 | 0.00 | 0.00 | 0.00 | 67 | 1006.3 |
| 20260504042100 | 54 | 202 | 0.0 | 0.0 | 0.00 | 0.00 | 0.00 | 66 | 1006.3 |
| 20260504041614 | 54 | 202 | 0.0 | 0.0 | 0.00 | 0.00 | 0.00 | 65 | 1006.6 |
| 20260504041100 | 54 | 202 | 0.0 | 0.0 | 0.00 | 0.00 | 0.00 | 66 | 1006.6 |
| 20260504040600 | 54 | 203 | 0.0 | 1.0 | 0.00 | 0.00 | 0.00 | 66 | 1006.6 |
| 20260504040100 | 55 | 202 | 0.0 | 1.0 | 0.00 | 0.00 | 0.00 | 64 | 1006.6 |
| 20260504035559 | 55 | 202 | 0.0 | 2.0 | 0.00 | 0.00 | 0.00 | 65 | 1006.6 |
| 20260504035059 | 55 | 202 | 0.0 | 2.0 | 0.00 | 0.00 | 0.00 | 65 | 1006.6 |
| 20260504034620 | 55 | 203 | 0.0 | 0.0 | 0.00 | 0.00 | 0.00 | 63 | 1006.7 |
| 20260504034058 | 55 | 202 | 0.0 | 3.0 | 0.00 | 0.00 | 0.00 | 63 | 1006.7 |
| 20260504033558 | 55 | 202 | 0.0 | 5.0 | 0.00 | 0.00 | 0.00 | 64 | 1006.7 |
| 20260504033059 | 55 | 202 | 3.0 | 5.0 | 0.00 | 0.00 | 0.00 | 63 | 1006.7 |
| 20260504032557 | 55 | 202 | 0.0 | 2.0 | 0.00 | 0.00 | 0.00 | 64 | 1006.7 |
| 20260504032057 | 55 | 202 | 0.0 | 1.0 | 0.00 | 0.00 | 0.00 | 62 | 1006.7 |
| 20260504031556 | 56 | 202 | 0.0 | 2.0 | 0.00 | 0.00 | 0.00 | 61 | 1006.7 |
| 20260504031056 | 56 | 202 | 0.0 | 2.0 | 0.00 | 0.00 | 0.00 | 61 | 1006.7 |
| 20260504030558 | 56 | 202 | 1.0 | 2.0 | 0.00 | 0.00 | 0.00 | 61 | 1006.7 |
| 20260504030056 | 56 | 202 | 1.0 | 3.0 | 0.00 | 0.00 | 0.00 | 60 | 1006.8 |
| 20260504025555 | 56 | 202 | 1.0 | 3.0 | 0.00 | 0.00 | 0.00 | 60 | 1006.8 |
| 20260504025056 | 57 | 202 | 0.0 | 1.0 | 0.00 | 0.00 | 0.00 | 59 | 1006.8 |
| 20260504024555 | 57 | 202 | 0.0 | 2.0 | 0.00 | 0.00 | 0.00 | 58 | 1007.0 |
| 20260504024053 | 57 | 202 | 0.0 | 2.0 | 0.00 | 0.00 | 0.00 | 58 | 1007.0 |
| 20260504023553 | 57 | 202 | 1.0 | 2.0 | 0.00 | 0.00 | 0.00 | 58 | 1007.0 |
| 20260504023053 | 57 | 202 | 1.0 | 3.0 | 0.00 | 0.00 | 0.00 | 57 | 1007.1 |
| 20260504022553 | 58 | 202 | 2.0 | 3.0 | 0.00 | 0.00 | 0.00 | 57 | 1007.1 |
| 20260504022051 | 58 | 202 | 2.0 | 3.0 | 0.00 | 0.00 | 0.00 | 56 | 1007.1 |
| 20260504021553 | 59 | 202 | 0.0 | 2.0 | 0.00 | 0.00 | 0.00 | 53 | 1007.2 |
| 20260504021054 | 59 | 202 | 1.0 | 2.0 | 0.00 | 0.00 | 0.00 | 53 | 1007.2 |
| 20260504020554 | 59 | 202 | 1.0 | 2.0 | 0.00 | 0.00 | 0.00 | 53 | 1007.2 |
| 20260504015552 | 60 | 202 | 1.0 | 2.0 | 0.00 | 0.00 | 0.00 | 51 | 1007.2 |
| 20260504015051 | 61 | 202 | 1.0 | 2.0 | 0.00 | 0.00 | 0.00 | 53 | 1007.2 |
| 20260504014558 | 62 | 202 | 0.0 | 2.0 | 0.00 | 0.00 | 0.00 | 52 | 1007.2 |
| 20260504014051 | 63 | 202 | 0.0 | 3.0 | 0.00 | 0.00 | 0.00 | 51 | 1007.2 |
| 20260504013550 | 64 | 202 | 1.0 | 4.0 | 0.00 | 0.00 | 0.00 | 47 | 1007.2 |
| 20260504013108 | 65 | 202 | 3.0 | 4.0 | 0.00 | 0.00 | 0.00 | 46 | 1007.2 |
| 20260504012550 | 66 | 265 | 3.0 | 4.0 | 0.00 | 0.00 | 0.00 | 44 | 1007.2 |
| 20260504012050 | 67 | 265 | 2.0 | 3.0 | 0.00 | 0.00 | 0.00 | 41 | 1007.2 |
| 20260504011549 | 67 | 265 | 2.0 | 4.0 | 0.00 | 0.00 | 0.00 | 41 | 1007.3 |
| 20260504011049 | 68 | 265 | 2.0 | 3.0 | 0.00 | 0.00 | 0.00 | 41 | 1007.3 |
| 20260504010548 | 69 | 267 | 1.0 | 3.0 | 0.00 | 0.00 | 0.00 | 39 | 1007.3 |
| 20260504010048 | 70 | 267 | 0.0 | 2.0 | 0.00 | 0.00 | 0.00 | 39 | 1007.5 |
| 20260504005549 | 71 | 267 | 0.0 | 2.0 | 0.00 | 0.00 | 0.00 | 37 | 1007.5 |
| 20260504005048 | 72 | 267 | 0.0 | 2.0 | 0.00 | 0.00 | 0.00 | 36 | 1007.5 |
| 20260504004548 | 72 | 267 | 0.0 | 2.0 | 0.00 | 0.00 | 0.00 | 34 | 1007.7 |
| 20260504004047 | 73 | 267 | 0.0 | 2.0 | 0.00 | 0.00 | 0.00 | 34 | 1007.7 |
| 20260504003547 | 73 | 267 | 0.0 | 4.0 | 0.00 | 0.00 | 0.00 | 33 | 1007.7 |
| 20260504003047 | 74 | 267 | 1.0 | 5.0 | 0.00 | 0.00 | 0.00 | 32 | 1007.7 |
| 20260504002547 | 74 | 272 | 2.0 | 6.0 | 0.00 | 0.00 | 0.00 | 31 | 1007.7 |
| 20260504002046 | 74 | 271 | 2.0 | 5.0 | 0.00 | 0.00 | 0.00 | 31 | 1007.7 |
| 20260504001548 | 74 | 237 | 3.0 | 5.0 | 0.00 | 0.00 | 0.00 | 30 | 1007.8 |
| 20260504001048 | 74 | 243 | 2.0 | 6.0 | 0.00 | 0.00 | 0.00 | 32 | 1007.8 |
| 20260504000546 | 74 | 267 | 2.0 | 6.0 | 0.00 | 0.00 | 0.00 | 31 | 1007.8 |
| 20260504000045 | 74 | 277 | 3.0 | 7.0 | 0.00 | 0.00 | 0.00 | 31 | 1007.8 |
| 20260503235547 | 74 | 261 | 3.0 | 6.0 | 0.00 | 0.00 | 0.00 | 31 | 1007.8 |
| 20260503235045 | 74 | 211 | 2.0 | 7.0 | 0.00 | 0.00 | 0.00 | 32 | 1007.8 |
| 20260503234545 | 74 | 157 | 3.0 | 7.0 | 0.00 | 0.00 | 0.00 | 33 | 1008.0 |
| 20260503234045 | 74 | 213 | 2.0 | 5.0 | 0.00 | 0.00 | 0.00 | 31 | 1008.0 |
| 20260503233544 | 74 | 215 | 2.0 | 6.0 | 0.00 | 0.00 | 0.00 | 31 | 1008.0 |
| 20260503233045 | 74 | 254 | 3.0 | 8.0 | 0.00 | 0.00 | 0.00 | 30 | 1008.2 |
| 20260503232543 | 74 | 267 | 3.0 | 8.0 | 0.00 | 0.00 | 0.00 | 31 | 1008.2 |
| 20260503232043 | 73 | 259 | 4.0 | 7.0 | 0.00 | 0.00 | 0.00 | 31 | 1008.2 |
| 20260503231543 | 73 | 272 | 3.0 | 7.0 | 0.00 | 0.00 | 0.00 | 32 | 1008.3 |
| 20260503231043 | 73 | 225 | 2.0 | 7.0 | 0.00 | 0.00 | 0.00 | 32 | 1008.3 |
| 20260503230544 | 73 | 229 | 4.0 | 7.0 | 0.00 | 0.00 | 0.00 | 33 | 1008.3 |
| 20260503230043 | 73 | 250 | 2.0 | 6.0 | 0.00 | 0.00 | 0.00 | 34 | 1008.3 |
| 20260503225542 | 73 | 231 | 2.0 | 6.0 | 0.00 | 0.00 | 0.00 | 33 | 1008.3 |
| 20260503225042 | 73 | 240 | 2.0 | 6.0 | 0.00 | 0.00 | 0.00 | 32 | 1008.3 |
| 20260503224542 | 73 | 238 | 2.0 | 6.0 | 0.00 | 0.00 | 0.00 | 32 | 1008.3 |
| 20260503224043 | 74 | 272 | 3.0 | 6.0 | 0.00 | 0.00 | 0.00 | 30 | 1008.3 |
| 20260503223541 | 74 | 247 | 2.0 | 5.0 | 0.00 | 0.00 | 0.00 | 31 | 1008.3 |
| 20260503223041 | 74 | 238 | 2.0 | 7.0 | 0.00 | 0.00 | 0.00 | 31 | 1008.3 |
| 20260503222541 | 74 | 209 | 4.0 | 8.0 | 0.00 | 0.00 | 0.00 | 30 | 1008.3 |
| 20260503222039 | 74 | 331 | 3.0 | 8.0 | 0.00 | 0.00 | 0.00 | 30 | 1008.3 |
| 20260503221546 | 74 | 290 | 5.0 | 8.0 | 0.00 | 0.00 | 0.00 | 32 | 1008.3 |
| 20260503221044 | 73 | 242 | 1.0 | 4.0 | 0.00 | 0.00 | 0.00 | 35 | 1008.3 |